Time;durP1;ratioP1;P1;durP2;ratioP2;P2;SDS_P1;SDS_P2;PMS_P1;PMS_P2;Temp;Humidity;BMP_temperature;BMP_pressure;BME280_temperature;BME280_humidity;BME280_pressure;Samples;Min_cycle;Max_cycle;Signal;HPM_P1;HPM_P2
2022/09/07 00:01:22;;;;;;;22.97;15.33;;;17.50;97.80;;;;;;5061001;28;20423;-62
2022/09/07 00:03:47;;;;;;;32.63;17.10;;;17.50;97.80;;;;;;5066798;28;20208;-62
2022/09/07 00:06:14;;;;;;;18.90;14.83;;;17.50;97.80;;;;;;5050279;28;20194;-62
2022/09/07 00:08:42;;;;;;;21.60;16.53;;;17.50;97.80;;;;;;5077563;28;20193;-62
2022/09/07 00:11:12;;;;;;;26.20;18.07;;;17.60;97.80;;;;;;5095895;28;20177;-62
2022/09/07 00:13:39;;;;;;;17.23;14.30;;;17.60;97.80;;;;;;5074148;28;20185;-62
2022/09/07 00:16:11;;;;;;;18.07;13.73;;;17.60;97.80;;;;;;5077713;28;20185;-62
2022/09/07 00:18:37;;;;;;;19.07;15.03;;;17.50;97.80;;;;;;5089688;28;20194;-62
2022/09/07 00:21:06;;;;;;;20.13;14.80;;;17.50;97.80;;;;;;5092450;28;20205;-62
2022/09/07 00:23:33;;;;;;;20.87;14.60;;;17.40;97.80;;;;;;5095408;28;20184;-63
2022/09/07 00:26:08;;;;;;;17.87;13.67;;;17.40;97.80;;;;;;5077688;28;20185;-62
2022/09/07 00:28:35;;;;;;;16.03;13.47;;;17.30;97.80;;;;;;5103604;28;20272;-62
2022/09/07 00:31:01;;;;;;;19.27;14.23;;;17.30;97.80;;;;;;5051714;28;20243;-62
2022/09/07 00:33:27;;;;;;;16.60;13.93;;;17.30;97.80;;;;;;5083847;28;20189;-62
2022/09/07 00:35:53;;;;;;;18.97;13.10;;;17.30;97.80;;;;;;5060019;28;20200;-63
2022/09/07 00:38:19;;;;;;;20.37;16.17;;;17.30;97.80;;;;;;5078299;28;20208;-62
2022/09/07 00:40:44;;;;;;;21.80;15.83;;;17.30;97.80;;;;;;5060627;28;20240;-62
2022/09/07 00:43:32;;;;;;;23.67;15.97;;;17.20;97.80;;;;;;5054123;28;20189;-62
2022/09/07 00:45:58;;;;;;;24.23;14.47;;;17.30;97.80;;;;;;5075072;28;20241;-62
2022/09/07 00:48:37;;;;;;;25.37;14.80;;;17.20;97.80;;;;;;5058549;28;20189;-63
2022/09/07 00:51:08;;;;;;;21.90;15.83;;;17.10;97.80;;;;;;5084048;28;20193;-63
2022/09/07 00:53:38;;;;;;;19.80;16.53;;;17.10;97.80;;;;;;5080131;28;20193;-62
2022/09/07 00:56:06;;;;;;;19.03;15.00;;;17.10;97.80;;;;;;5076026;28;20216;-63
2022/09/07 00:58:34;;;;;;;16.90;14.53;;;17.10;97.80;;;;;;5079297;28;20192;-62
2022/09/07 01:01:00;;;;;;;18.17;14.73;;;17.10;97.80;;;;;;5075545;28;20227;-62
2022/09/07 01:03:30;;;;;;;17.50;14.30;;;17.10;97.80;;;;;;5077352;28;20188;-62
2022/09/07 01:06:18;;;;;;;19.73;14.53;;;17.10;97.80;;;;;;5094130;28;20216;-62
2022/09/07 01:08:46;;;;;;;19.00;13.90;;;17.00;97.80;;;;;;5076527;28;20195;-62
2022/09/07 01:11:12;;;;;;;17.37;13.93;;;17.00;97.80;;;;;;5056873;28;20198;-62
2022/09/07 01:13:41;;;;;;;18.37;15.40;;;17.00;97.80;;;;;;5051621;28;20281;-63
2022/09/07 01:16:28;;;;;;;15.90;13.57;;;17.00;97.80;;;;;;5093886;28;20196;-63
2022/09/07 01:19:15;;;;;;;18.47;13.23;;;16.90;97.80;;;;;;5100617;28;20184;-63
2022/09/07 01:21:47;;;;;;;17.13;14.00;;;16.90;97.80;;;;;;5076351;28;20209;-62
2022/09/07 01:24:34;;;;;;;23.67;15.03;;;16.90;97.80;;;;;;5081803;28;20186;-62
2022/09/07 01:27:39;;;;;;;15.77;13.50;;;16.90;97.80;;;;;;5075514;28;20177;-62
2022/09/07 01:30:08;;;;;;;20.73;14.77;;;16.90;97.80;;;;;;5047368;28;20235;-63
2022/09/07 01:32:43;;;;;;;18.97;14.13;;;16.90;97.80;;;;;;5093636;28;20236;-62
2022/09/07 01:35:16;;;;;;;16.33;14.10;;;16.90;97.80;;;;;;5079795;28;20198;-62
2022/09/07 01:38:19;;;;;;;18.60;14.53;;;16.90;97.80;;;;;;5079874;28;20172;-62
2022/09/07 01:41:01;;;;;;;25.23;16.33;;;16.90;97.80;;;;;;5030636;28;20214;-62
2022/09/07 01:43:42;;;;;;;17.50;13.87;;;16.90;97.80;;;;;;5077906;28;20189;-62
2022/09/07 01:46:30;;;;;;;15.77;13.37;;;16.90;97.80;;;;;;5075278;28;20185;-63
2022/09/07 01:49:07;;;;;;;14.70;13.20;;;16.90;97.80;;;;;;5093742;28;20213;-63
2022/09/07 01:51:37;;;;;;;19.47;14.73;;;16.80;97.80;;;;;;5092119;28;20228;-63
2022/09/07 01:54:13;;;;;;;17.17;15.37;;;16.80;97.80;;;;;;5082521;28;20196;-63
2022/09/07 01:56:43;;;;;;;25.00;15.27;;;16.80;97.80;;;;;;5065634;28;20268;-62
2022/09/07 01:59:28;;;;;;;18.37;15.13;;;16.80;97.80;;;;;;5070405;28;20197;-62
2022/09/07 02:02:03;;;;;;;15.47;13.87;;;16.80;97.80;;;;;;5090147;28;20200;-62
2022/09/07 02:04:44;;;;;;;18.17;13.67;;;16.80;97.80;;;;;;5076955;28;20196;-62
2022/09/07 02:07:29;;;;;;;17.23;13.83;;;16.80;97.80;;;;;;5075468;28;20524;-62
2022/09/07 02:10:18;;;;;;;19.53;13.67;;;16.80;97.80;;;;;;5075651;28;20237;-62
2022/09/07 02:12:52;;;;;;;18.23;14.17;;;16.70;97.80;;;;;;5074112;28;20180;-62
2022/09/07 02:15:41;;;;;;;16.60;12.97;;;16.70;97.80;;;;;;5076149;28;20235;-62
2022/09/07 02:18:09;;;;;;;20.77;13.57;;;16.70;97.80;;;;;;5078678;28;20189;-62
2022/09/07 02:20:37;;;;;;;14.87;13.23;;;16.60;97.80;;;;;;5073480;28;20225;-62
2022/09/07 02:23:12;;;;;;;15.63;14.03;;;16.60;97.80;;;;;;5097801;28;20188;-62
2022/09/07 02:25:45;;;;;;;29.90;14.13;;;16.60;97.80;;;;;;5096101;28;20185;-62
2022/09/07 02:28:15;;;;;;;14.77;12.93;;;16.60;97.80;;;;;;5104587;28;20273;-63
2022/09/07 02:30:41;;;;;;;14.63;13.13;;;16.50;97.80;;;;;;5077438;28;20182;-62
2022/09/07 02:33:07;;;;;;;13.77;12.30;;;16.50;97.80;;;;;;5089155;28;20248;-63
2022/09/07 02:35:33;;;;;;;22.23;12.93;;;16.50;97.80;;;;;;5059452;28;20202;-63
2022/09/07 02:38:03;;;;;;;16.30;13.23;;;16.60;97.80;;;;;;5092476;28;20220;-62
2022/09/07 02:40:29;;;;;;;13.53;12.07;;;16.50;97.80;;;;;;5078334;28;20299;-63
2022/09/07 02:42:59;;;;;;;13.00;11.30;;;16.50;97.80;;;;;;5087304;28;20189;-63
2022/09/07 02:45:26;;;;;;;14.53;12.27;;;16.60;97.80;;;;;;5078702;28;20174;-63
2022/09/07 02:48:24;;;;;;;13.87;12.43;;;16.50;97.80;;;;;;5085410;28;20181;-62
2022/09/07 02:51:08;;;;;;;12.70;11.40;;;16.50;97.80;;;;;;5081255;28;20189;-63
2022/09/07 02:53:49;;;;;;;14.20;11.20;;;16.50;97.80;;;;;;5097684;28;20173;-62
2022/09/07 02:56:49;;;;;;;17.33;11.90;;;16.40;97.80;;;;;;5079335;28;20211;-63
2022/09/07 02:59:47;;;;;;;15.87;11.37;;;16.40;97.80;;;;;;5097860;28;20204;-62
2022/09/07 03:02:37;;;;;;;13.73;12.47;;;16.40;97.80;;;;;;5082441;28;20228;-62
2022/09/07 03:05:18;;;;;;;14.40;13.00;;;16.40;97.80;;;;;;5078559;28;20203;-62
2022/09/07 03:08:08;;;;;;;14.93;13.50;;;16.40;97.80;;;;;;5071450;28;20186;-62
2022/09/07 03:10:37;;;;;;;14.60;12.70;;;16.50;97.80;;;;;;5070854;28;20242;-62
2022/09/07 03:13:03;;;;;;;15.60;12.17;;;16.50;97.80;;;;;;5079293;28;20193;-62
2022/09/07 03:15:29;;;;;;;17.33;12.10;;;16.40;97.80;;;;;;5061745;28;20272;-63
2022/09/07 03:17:54;;;;;;;12.83;11.63;;;16.30;97.80;;;;;;5062415;28;20189;-62
2022/09/07 03:20:21;;;;;;;12.60;11.30;;;16.30;97.80;;;;;;5055735;28;20205;-63
2022/09/07 03:22:48;;;;;;;12.67;11.30;;;16.30;97.80;;;;;;5078569;28;20220;-62
2022/09/07 03:25:14;;;;;;;12.57;11.20;;;16.30;97.80;;;;;;5042341;28;20205;-63
2022/09/07 03:27:40;;;;;;;12.57;11.27;;;16.30;97.70;;;;;;5069633;28;20328;-62
2022/09/07 03:30:07;;;;;;;12.43;11.07;;;16.30;97.80;;;;;;5040377;28;20223;-62
2022/09/07 03:32:35;;;;;;;13.37;11.97;;;16.20;97.70;;;;;;5100118;28;20253;-62
2022/09/07 03:35:02;;;;;;;14.50;11.80;;;16.20;97.80;;;;;;5077905;28;20181;-62
2022/09/07 03:37:28;;;;;;;16.57;12.50;;;16.20;97.80;;;;;;5070612;28;20185;-62
2022/09/07 03:39:54;;;;;;;12.83;10.83;;;16.20;97.80;;;;;;5068138;28;20193;-62
2022/09/07 03:42:20;;;;;;;14.27;12.77;;;16.20;97.70;;;;;;5078245;28;20197;-62
2022/09/07 03:44:48;;;;;;;13.40;11.03;;;16.20;97.80;;;;;;5078144;28;20209;-62
2022/09/07 03:47:14;;;;;;;14.10;11.73;;;16.30;97.80;;;;;;5096078;28;20189;-62
2022/09/07 03:49:40;;;;;;;12.33;10.90;;;16.30;97.80;;;;;;5078846;28;20200;-62
2022/09/07 03:52:05;;;;;;;14.43;12.97;;;16.20;97.70;;;;;;5079633;28;20197;-62
2022/09/07 03:54:31;;;;;;;13.33;10.43;;;16.20;97.80;;;;;;5050228;28;20188;-63
2022/09/07 03:56:57;;;;;;;12.97;11.57;;;16.20;97.70;;;;;;5045030;28;20276;-62
2022/09/07 03:59:22;;;;;;;12.47;11.20;;;16.20;97.80;;;;;;5044482;28;20182;-62
2022/09/07 04:01:48;;;;;;;12.27;10.97;;;16.20;97.80;;;;;;5078505;28;20290;-63
2022/09/07 04:04:14;;;;;;;14.53;11.60;;;16.20;97.80;;;;;;5058766;28;20186;-62
2022/09/07 04:06:39;;;;;;;14.63;11.87;;;16.20;97.70;;;;;;5060647;28;20209;-62
2022/09/07 04:09:09;;;;;;;12.40;11.17;;;16.20;97.70;;;;;;5088092;28;20191;-63
2022/09/07 04:11:35;;;;;;;13.23;11.80;;;16.20;97.70;;;;;;5078292;28;20196;-62
2022/09/07 04:14:00;;;;;;;14.30;11.03;;;16.20;97.70;;;;;;5060333;28;20197;-62
2022/09/07 04:16:27;;;;;;;13.03;11.33;;;16.20;97.70;;;;;;5063855;28;20209;-63
2022/09/07 04:18:57;;;;;;;12.17;10.97;;;16.10;97.70;;;;;;5064076;28;20192;-62
2022/09/07 04:21:25;;;;;;;12.30;9.70;;;16.10;97.70;;;;;;5061805;28;20239;-62
2022/09/07 04:23:51;;;;;;;12.60;11.10;;;16.10;97.70;;;;;;5077810;28;20273;-62
2022/09/07 04:26:28;;;;;;;11.63;10.53;;;16.00;97.70;;;;;;5075526;28;20235;-63
2022/09/07 04:28:54;;;;;;;11.70;10.50;;;16.00;97.70;;;;;;5080338;28;20243;-62
2022/09/07 04:31:21;;;;;;;14.40;10.73;;;16.00;97.70;;;;;;5081451;28;20200;-62
2022/09/07 04:33:48;;;;;;;12.57;11.37;;;16.00;97.70;;;;;;5095871;28;20180;-63
2022/09/07 04:36:15;;;;;;;12.93;11.60;;;16.00;97.70;;;;;;5102444;28;20192;-62
2022/09/07 04:38:41;;;;;;;14.20;11.77;;;16.00;97.70;;;;;;5063327;28;20197;-63
2022/09/07 04:41:09;;;;;;;12.33;11.10;;;16.00;97.70;;;;;;5107319;28;20216;-63
2022/09/07 04:43:37;;;;;;;16.03;13.27;;;16.00;97.70;;;;;;5097861;28;20255;-63
2022/09/07 04:46:13;;;;;;;14.00;12.10;;;16.00;97.70;;;;;;5108785;28;20177;-63
2022/09/07 04:48:38;;;;;;;12.53;11.20;;;16.10;97.70;;;;;;5096244;28;20188;-63
2022/09/07 04:51:06;;;;;;;13.10;11.70;;;16.10;97.70;;;;;;5092604;28;20218;-63
2022/09/07 04:53:33;;;;;;;15.30;11.63;;;16.20;97.70;;;;;;5095705;28;20180;-63
2022/09/07 04:55:59;;;;;;;17.63;12.60;;;16.20;97.70;;;;;;5082152;28;20242;-63
2022/09/07 04:58:25;;;;;;;12.87;11.50;;;16.20;97.70;;;;;;5096201;28;20307;-63
2022/09/07 05:00:51;;;;;;;12.83;11.63;;;16.20;97.70;;;;;;5088027;28;20196;-63
2022/09/07 05:03:16;;;;;;;12.60;11.40;;;16.20;97.70;;;;;;5060368;28;20253;-63
2022/09/07 05:05:43;;;;;;;14.20;12.33;;;16.20;97.80;;;;;;5085729;28;20177;-63
2022/09/07 05:08:12;;;;;;;18.57;13.60;;;16.30;97.80;;;;;;5115313;28;20180;-63
2022/09/07 05:10:38;;;;;;;15.00;12.70;;;16.30;97.80;;;;;;5097606;28;20252;-63
2022/09/07 05:13:03;;;;;;;14.77;13.27;;;16.30;97.70;;;;;;5078461;28;20291;-63
2022/09/07 05:15:29;;;;;;;16.83;13.80;;;16.30;97.70;;;;;;5113732;28;20199;-64
2022/09/07 05:17:56;;;;;;;15.10;13.57;;;16.30;97.70;;;;;;5067659;28;20238;-64
2022/09/07 05:20:22;;;;;;;19.00;13.63;;;16.40;97.70;;;;;;5096470;28;20200;-63
2022/09/07 05:22:48;;;;;;;15.17;13.27;;;16.50;97.80;;;;;;5097994;28;20184;-63
2022/09/07 05:25:13;;;;;;;16.03;14.40;;;16.50;97.80;;;;;;5062566;28;20192;-63
2022/09/07 05:27:39;;;;;;;16.90;15.03;;;16.50;97.80;;;;;;5061190;28;20323;-63
2022/09/07 05:30:05;;;;;;;19.43;15.37;;;16.50;97.80;;;;;;5061713;28;20214;-62
2022/09/07 05:32:45;;;;;;;16.53;14.70;;;16.60;97.80;;;;;;5054095;28;20561;-62
2022/09/07 05:35:11;;;;;;;16.23;13.47;;;16.60;97.70;;;;;;5048734;28;20221;-63
2022/09/07 05:37:36;;;;;;;16.50;14.77;;;16.60;97.70;;;;;;5048301;28;20246;-64
2022/09/07 05:40:03;;;;;;;15.13;13.07;;;16.60;97.80;;;;;;5050059;28;20198;-63
2022/09/07 05:42:29;;;;;;;16.23;14.53;;;16.60;97.80;;;;;;5065083;28;20221;-63
2022/09/07 05:44:55;;;;;;;16.27;14.53;;;16.70;97.80;;;;;;5048306;28;20191;-63
2022/09/07 05:47:21;;;;;;;16.10;14.40;;;16.60;97.70;;;;;;5066444;28;20264;-62
2022/09/07 05:49:47;;;;;;;17.07;15.23;;;16.60;97.80;;;;;;5050995;28;20237;-62
2022/09/07 05:52:13;;;;;;;16.67;14.13;;;16.60;97.80;;;;;;5027548;28;20219;-62
2022/09/07 05:54:39;;;;;;;15.40;13.90;;;16.70;97.80;;;;;;5063598;28;20202;-62
2022/09/07 05:57:06;;;;;;;16.27;14.40;;;16.70;97.80;;;;;;5025007;28;20194;-63
2022/09/07 05:59:32;;;;;;;14.47;12.97;;;16.70;97.80;;;;;;5079556;28;20199;-63
2022/09/07 06:01:58;;;;;;;15.27;13.67;;;16.60;97.80;;;;;;5047321;28;20202;-62
2022/09/07 06:04:23;;;;;;;15.47;13.87;;;16.60;97.80;;;;;;5038585;28;20202;-65
2022/09/07 06:06:49;;;;;;;17.97;14.30;;;16.60;97.80;;;;;;5062708;28;20211;-64
2022/09/07 06:09:15;;;;;;;17.27;14.93;;;16.70;97.80;;;;;;5045457;28;20193;-64
2022/09/07 06:11:41;;;;;;;15.87;14.27;;;16.70;97.80;;;;;;5042771;28;20278;-62
2022/09/07 06:14:07;;;;;;;14.60;13.10;;;16.70;97.80;;;;;;5028545;28;20221;-63
2022/09/07 06:16:33;;;;;;;16.10;14.60;;;16.70;97.80;;;;;;5080193;28;20199;-63
2022/09/07 06:19:05;;;;;;;16.23;13.50;;;16.80;97.80;;;;;;5027433;28;20200;-62
2022/09/07 06:21:37;;;;;;;16.57;14.20;;;16.80;97.80;;;;;;5078939;28;20194;-62
2022/09/07 06:24:04;;;;;;;17.60;15.53;;;16.80;97.80;;;;;;5042800;28;20253;-62
2022/09/07 06:26:30;;;;;;;16.47;14.77;;;16.80;97.80;;;;;;5027235;28;20214;-63
2022/09/07 06:28:56;;;;;;;18.27;16.17;;;16.80;97.80;;;;;;5046634;28;20240;-63
2022/09/07 06:31:23;;;;;;;21.30;16.00;;;16.80;97.80;;;;;;5078727;28;20230;-62
2022/09/07 06:33:49;;;;;;;18.27;15.97;;;16.90;97.80;;;;;;5060909;28;20199;-61
2022/09/07 06:36:17;;;;;;;19.40;16.40;;;16.90;97.80;;;;;;5061543;28;20278;-63
2022/09/07 06:38:43;;;;;;;23.43;16.93;;;17.00;97.80;;;;;;5076805;28;20187;-63
2022/09/07 06:41:12;;;;;;;19.27;15.97;;;17.00;97.80;;;;;;5034979;28;20289;-63
2022/09/07 06:43:39;;;;;;;20.37;17.87;;;17.10;97.80;;;;;;5066650;28;20195;-63
2022/09/07 06:46:05;;;;;;;18.63;16.17;;;17.20;97.80;;;;;;5066624;28;20183;-63
2022/09/07 06:48:32;;;;;;;19.93;17.83;;;17.30;97.90;;;;;;5066542;28;20198;-62
2022/09/07 06:51:18;;;;;;;22.20;17.70;;;17.30;97.90;;;;;;5064556;28;20219;-62
2022/09/07 06:53:45;;;;;;;22.30;19.00;;;17.40;97.90;;;;;;5033345;28;20191;-62
2022/09/07 06:56:16;;;;;;;22.23;18.77;;;17.40;97.90;;;;;;5034348;28;20194;-61
2022/09/07 06:58:42;;;;;;;26.03;18.50;;;17.50;97.90;;;;;;5033191;28;20191;-62
2022/09/07 07:01:16;;;;;;;18.87;16.87;;;17.50;97.90;;;;;;5031153;28;20214;-61
2022/09/07 07:03:42;;;;;;;20.50;18.37;;;17.50;97.90;;;;;;5066498;28;20195;-62
2022/09/07 07:06:09;;;;;;;20.23;17.90;;;17.60;97.90;;;;;;5032017;28;20191;-62
2022/09/07 07:08:35;;;;;;;26.73;19.63;;;17.60;97.90;;;;;;5031975;28;20207;-62
2022/09/07 07:11:07;;;;;;;24.40;19.30;;;17.60;97.90;;;;;;5066184;28;20239;-62
2022/09/07 07:13:34;;;;;;;23.30;18.27;;;17.60;97.90;;;;;;5066565;28;20245;-62
2022/09/07 07:16:13;;;;;;;20.03;16.80;;;17.60;97.90;;;;;;5048952;28;20198;-63
2022/09/07 07:18:40;;;;;;;21.07;18.10;;;17.70;97.90;;;;;;5013544;28;20191;-62
2022/09/07 07:21:12;;;;;;;21.33;16.63;;;17.70;97.90;;;;;;5064440;28;20282;-62
2022/09/07 07:23:38;;;;;;;20.03;17.90;;;17.70;97.90;;;;;;5031146;28;20199;-62
2022/09/07 07:26:06;;;;;;;19.43;16.83;;;17.70;97.90;;;;;;5031281;28;20214;-62
2022/09/07 07:28:32;;;;;;;21.90;17.97;;;17.70;97.90;;;;;;5061551;28;20194;-62
2022/09/07 07:31:00;;;;;;;19.73;17.63;;;17.70;97.90;;;;;;5049473;28;20243;-63
2022/09/07 07:33:35;;;;;;;20.70;17.13;;;17.70;97.90;;;;;;5026570;28;20184;-62
2022/09/07 07:36:22;;;;;;;22.03;19.30;;;17.70;97.90;;;;;;5064840;28;20201;-62
2022/09/07 07:38:50;;;;;;;24.03;20.07;;;17.70;97.90;;;;;;5063353;28;20191;-62
2022/09/07 07:41:18;;;;;;;22.63;18.80;;;17.70;97.90;;;;;;5064622;28;20195;-62
2022/09/07 07:43:44;;;;;;;25.57;20.83;;;17.70;97.90;;;;;;5049114;28;20297;-62
2022/09/07 07:46:15;;;;;;;20.97;18.73;;;17.80;97.90;;;;;;5033232;28;20218;-62
2022/09/07 07:48:41;;;;;;;21.67;18.60;;;17.80;97.90;;;;;;5065873;28;20187;-62
2022/09/07 07:51:10;;;;;;;20.93;18.67;;;17.80;97.90;;;;;;5034750;28;20231;-62
2022/09/07 07:53:37;;;;;;;19.77;17.67;;;17.80;97.90;;;;;;5016192;28;20221;-62
2022/09/07 07:56:04;;;;;;;27.83;21.00;;;17.90;97.90;;;;;;5048997;28;20243;-63
2022/09/07 07:58:32;;;;;;;19.60;17.53;;;17.90;97.90;;;;;;5030589;28;20254;-62
2022/09/07 08:01:05;;;;;;;26.10;20.27;;;17.90;97.90;;;;;;5026521;28;20278;-62
2022/09/07 08:03:33;;;;;;;21.63;17.80;;;18.00;97.90;;;;;;5046917;28;20198;-62
2022/09/07 08:06:06;;;;;;;23.87;18.73;;;18.00;97.90;;;;;;5014930;28;20202;-62
2022/09/07 08:08:34;;;;;;;23.03;20.60;;;18.10;97.90;;;;;;5032058;28;20188;-62
2022/09/07 08:11:08;;;;;;;24.60;20.37;;;18.10;97.90;;;;;;5031311;28;20204;-62
2022/09/07 08:13:35;;;;;;;25.33;20.60;;;18.20;97.90;;;;;;5025064;28;20191;-62
2022/09/07 08:16:01;;;;;;;21.17;18.13;;;18.20;98.00;;;;;;5022929;28;20193;-62
2022/09/07 08:18:27;;;;;;;19.87;17.37;;;18.20;97.90;;;;;;5049740;28;20190;-62
2022/09/07 08:20:53;;;;;;;22.33;17.63;;;18.20;97.90;;;;;;5029706;28;20198;-62
2022/09/07 08:23:21;;;;;;;21.90;17.97;;;18.30;97.90;;;;;;5009895;28;20286;-62
2022/09/07 08:25:52;;;;;;;20.73;17.30;;;18.30;97.90;;;;;;5048630;28;20195;-63
2022/09/07 08:28:19;;;;;;;20.27;18.20;;;18.30;97.90;;;;;;5042425;28;20210;-62
2022/09/07 08:30:44;;;;;;;26.60;18.83;;;18.40;97.90;;;;;;5007286;28;20235;-63
2022/09/07 08:33:10;;;;;;;23.40;17.63;;;18.40;97.90;;;;;;5029547;28;20672;-63
2022/09/07 08:35:36;;;;;;;22.90;17.67;;;18.40;98.00;;;;;;5031832;28;20190;-63
2022/09/07 08:38:02;;;;;;;21.27;17.70;;;18.50;97.90;;;;;;5031896;28;20198;-63
2022/09/07 08:40:29;;;;;;;19.90;17.77;;;18.60;98.00;;;;;;5031665;28;20237;-62
2022/09/07 08:43:04;;;;;;;22.93;19.17;;;18.60;98.00;;;;;;5037187;28;20180;-62
2022/09/07 08:45:44;;;;;;;25.80;19.07;;;18.60;98.00;;;;;;5064885;28;20187;-62
2022/09/07 08:48:14;;;;;;;19.80;17.43;;;18.60;98.00;;;;;;5030968;28;20187;-63
2022/09/07 08:51:05;;;;;;;19.73;17.63;;;18.60;97.90;;;;;;5030875;28;20223;-63
2022/09/07 08:53:31;;;;;;;20.90;17.47;;;18.60;98.00;;;;;;5031735;28;20217;-63
2022/09/07 08:56:03;;;;;;;19.47;17.57;;;18.70;98.00;;;;;;5031710;28;20206;-63
2022/09/07 08:58:43;;;;;;;22.20;19.30;;;18.70;98.00;;;;;;5031261;28;20252;-63
2022/09/07 09:01:12;;;;;;;22.10;18.90;;;18.70;98.00;;;;;;5026901;28;20197;-63
2022/09/07 09:03:39;;;;;;;24.03;19.80;;;18.70;98.00;;;;;;5047839;28;20266;-63
2022/09/07 09:06:21;;;;;;;32.97;27.47;;;18.70;98.00;;;;;;5037361;28;20190;-63
2022/09/07 09:08:59;;;;;;;34.37;25.43;;;18.80;98.00;;;;;;5031475;28;20370;-61
2022/09/07 09:11:43;;;;;;;29.97;23.50;;;18.70;98.10;;;;;;5063834;28;20206;-62
2022/09/07 09:14:28;;;;;;;25.87;23.07;;;18.80;98.10;;;;;;5031389;28;20231;-63
2022/09/07 09:16:59;;;;;;;20.80;17.40;;;18.90;98.10;;;;;;5062288;28;20187;-63
2022/09/07 09:19:59;;;;;;;23.23;20.77;;;19.00;98.00;;;;;;5063195;28;20669;-63
2022/09/07 09:22:27;;;;;;;22.73;19.73;;;19.00;98.10;;;;;;5029350;28;20238;-63
2022/09/07 09:25:20;;;;;;;22.23;19.90;;;19.00;98.00;;;;;;5062938;28;20206;-63
2022/09/07 09:27:47;;;;;;;17.10;15.30;;;19.10;98.00;;;;;;5053230;28;20204;-63
2022/09/07 09:30:19;;;;;;;18.10;16.27;;;19.10;98.00;;;;;;5045132;28;20194;-63
2022/09/07 09:32:48;;;;;;;18.83;17.00;;;19.00;98.00;;;;;;5031375;28;20255;-63
2022/09/07 09:35:16;;;;;;;19.23;17.33;;;19.20;98.10;;;;;;5031452;28;20183;-63
2022/09/07 09:37:42;;;;;;;20.10;17.97;;;19.20;98.00;;;;;;5031445;28;20264;-63
2022/09/07 09:40:20;;;;;;;18.47;16.60;;;19.30;98.00;;;;;;5029898;28;20198;-63
2022/09/07 09:42:46;;;;;;;20.20;18.13;;;19.30;98.00;;;;;;5023091;28;20281;-63
2022/09/07 09:45:20;;;;;;;14.60;13.20;;;19.20;98.00;;;;;;5064185;28;20265;-63
2022/09/07 09:47:51;;;;;;;16.57;14.87;;;19.00;98.00;;;;;;5030247;28;20221;-62
2022/09/07 09:50:25;;;;;;;12.37;11.20;;;19.00;98.00;;;;;;5033816;28;20187;-62
2022/09/07 09:52:52;;;;;;;15.43;13.73;;;19.10;97.90;;;;;;5028632;28;20369;-62
2022/09/07 09:55:34;;;;;;;14.93;13.53;;;19.10;97.90;;;;;;5026930;28;20276;-62
2022/09/07 09:58:03;;;;;;;16.07;14.47;;;19.20;97.90;;;;;;5028514;28;20233;-63
2022/09/07 10:00:31;;;;;;;16.27;14.80;;;19.10;97.90;;;;;;5030081;28;20195;-62
2022/09/07 10:03:27;;;;;;;16.47;14.97;;;19.20;97.90;;;;;;5050370;28;20189;-62
2022/09/07 10:05:53;;;;;;;17.30;15.70;;;19.30;97.90;;;;;;5022114;28;20202;-62
2022/09/07 10:08:29;;;;;;;16.33;13.37;;;19.40;97.90;;;;;;5027114;28;20202;-62
2022/09/07 10:11:06;;;;;;;16.27;14.77;;;19.50;97.90;;;;;;5014027;28;20396;-63
2022/09/07 10:13:54;;;;;;;16.47;14.87;;;19.60;98.00;;;;;;5062400;28;20236;-62
2022/09/07 10:16:39;;;;;;;18.97;17.17;;;19.70;98.00;;;;;;5037132;28;20188;-62
2022/09/07 10:19:05;;;;;;;18.10;16.23;;;19.80;98.00;;;;;;5033510;28;20190;-62
2022/09/07 10:21:31;;;;;;;18.83;16.87;;;19.80;98.00;;;;;;5021430;28;20196;-63
2022/09/07 10:24:12;;;;;;;18.47;15.73;;;19.80;97.90;;;;;;5063578;28;20190;-62
2022/09/07 10:26:39;;;;;;;18.87;17.03;;;19.90;97.90;;;;;;5026218;28;20195;-62
2022/09/07 10:29:29;;;;;;;18.07;15.93;;;19.90;97.90;;;;;;5017499;28;20199;-62
2022/09/07 10:32:31;;;;;;;16.30;14.77;;;20.00;97.70;;;;;;5035004;28;20276;-62
2022/09/07 10:35:19;;;;;;;15.73;14.37;;;20.10;97.70;;;;;;5033801;28;20285;-62
2022/09/07 10:38:18;;;;;;;18.67;16.77;;;20.10;97.60;;;;;;5032959;28;20228;-62
2022/09/07 10:40:48;;;;;;;16.77;15.17;;;20.20;97.70;;;;;;5025225;28;20194;-62
2022/09/07 10:43:38;;;;;;;17.63;16.03;;;20.30;97.70;;;;;;5035347;28;20246;-62
2022/09/07 10:46:27;;;;;;;18.03;15.53;;;20.40;97.70;;;;;;5033077;28;20190;-62
2022/09/07 10:49:11;;;;;;;15.47;13.97;;;20.40;97.80;;;;;;5054777;28;20203;-62
2022/09/07 10:51:51;;;;;;;17.53;15.77;;;20.30;97.70;;;;;;5067647;28;20210;-62
2022/09/07 10:54:35;;;;;;;17.87;16.20;;;20.50;97.60;;;;;;5064070;28;20183;-62
2022/09/07 10:57:39;;;;;;;17.27;15.77;;;20.70;97.70;;;;;;5026148;28;20183;-62
2022/09/07 11:00:10;;;;;;;15.30;14.00;;;20.70;97.40;;;;;;5043649;28;20197;-62
2022/09/07 11:03:00;;;;;;;14.40;13.17;;;20.80;97.30;;;;;;5033161;28;20199;-62
2022/09/07 11:05:51;;;;;;;17.13;15.63;;;20.70;97.10;;;;;;5066794;28;20191;-62
2022/09/07 11:08:26;;;;;;;15.37;14.07;;;20.80;97.40;;;;;;5056404;28;20194;-62
2022/09/07 11:11:17;;;;;;;13.30;12.00;;;20.90;97.60;;;;;;5033400;28;20210;-62
2022/09/07 11:13:46;;;;;;;14.97;13.47;;;21.00;97.60;;;;;;5032144;28;20191;-62
2022/09/07 11:16:20;;;;;;;15.03;13.63;;;21.10;97.10;;;;;;5031918;28;20258;-62
2022/09/07 11:19:10;;;;;;;14.33;13.03;;;21.10;97.30;;;;;;5033512;28;20187;-62
2022/09/07 11:21:43;;;;;;;15.27;13.83;;;21.10;97.30;;;;;;5032324;28;20368;-62
2022/09/07 11:24:18;;;;;;;15.83;14.23;;;21.20;97.30;;;;;;5064896;28;20197;-62
2022/09/07 11:26:52;;;;;;;15.70;14.30;;;21.30;97.40;;;;;;5031387;28;20285;-62
2022/09/07 11:29:43;;;;;;;12.37;11.27;;;21.50;97.40;;;;;;5033352;28;20229;-62
2022/09/07 11:32:18;;;;;;;12.53;11.37;;;21.80;97.10;;;;;;5031664;28;20269;-62
2022/09/07 11:34:57;;;;;;;11.67;10.63;;;21.90;96.60;;;;;;5045357;28;20187;-62
2022/09/07 11:37:33;;;;;;;14.00;12.37;;;22.00;96.60;;;;;;5033921;28;20186;-62
2022/09/07 11:40:28;;;;;;;14.47;13.27;;;22.00;97.00;;;;;;5066967;28;20182;-61
2022/09/07 11:43:16;;;;;;;14.33;12.93;;;22.20;97.30;;;;;;5065151;28;20195;-62
2022/09/07 11:45:52;;;;;;;10.03;9.23;;;22.20;97.30;;;;;;5034076;28;20191;-62
2022/09/07 11:48:56;;;;;;;12.67;11.47;;;22.10;96.50;;;;;;5033147;28;20222;-62
2022/09/07 11:51:37;;;;;;;11.57;10.53;;;21.90;96.50;;;;;;5027904;28;20225;-62
2022/09/07 11:54:32;;;;;;;9.37;8.53;;;22.30;96.10;;;;;;5065003;28;20195;-62
2022/09/07 11:57:37;;;;;;;12.17;11.17;;;22.20;93.80;;;;;;5043629;28;20187;-62
2022/09/07 12:00:17;;;;;;;11.53;10.53;;;22.30;96.40;;;;;;5064999;28;20189;-61
2022/09/07 12:02:49;;;;;;;11.07;10.17;;;22.40;96.10;;;;;;5064269;28;20199;-62
2022/09/07 12:05:26;;;;;;;11.03;10.13;;;22.30;96.10;;;;;;5065924;28;20186;-61
2022/09/07 12:08:04;;;;;;;11.60;10.47;;;22.10;95.20;;;;;;5031499;28;20190;-61
2022/09/07 12:10:48;;;;;;;12.27;11.17;;;22.10;95.60;;;;;;5032872;28;20214;-60
2022/09/07 12:14:11;;;;;;;12.17;10.97;;;22.40;96.20;;;;;;5032810;28;20191;-60
2022/09/07 12:16:52;;;;;;;10.87;9.87;;;22.70;96.50;;;;;;4993794;28;20184;-60
2022/09/07 12:19:23;;;;;;;10.53;9.53;;;22.80;96.00;;;;;;5009945;28;20270;-60
2022/09/07 12:21:52;;;;;;;10.10;9.20;;;23.00;96.00;;;;;;5005016;28;20210;-60
2022/09/07 12:24:38;;;;;;;12.43;10.53;;;23.20;93.80;;;;;;5029884;28;20178;-61
2022/09/07 12:27:19;;;;;;;10.00;9.10;;;23.30;94.60;;;;;;5032303;28;20190;-61
2022/09/07 12:29:46;;;;;;;9.10;8.40;;;23.50;93.80;;;;;;5016132;28;20209;-61
2022/09/07 12:32:11;;;;;;;7.87;7.30;;;23.70;92.10;;;;;;5030544;28;20241;-60
2022/09/07 12:34:54;;;;;;;9.27;8.30;;;24.00;89.60;;;;;;5035446;28;20191;-60
2022/09/07 12:37:26;;;;;;;9.47;7.70;;;24.60;89.20;;;;;;5032862;28;20190;-62
2022/09/07 12:40:29;;;;;;;8.67;7.87;;;24.90;86.80;;;;;;5030764;28;20262;-61
2022/09/07 12:43:13;;;;;;;8.13;7.43;;;25.20;88.00;;;;;;5046813;28;20187;-61
2022/09/07 12:45:39;;;;;;;8.17;7.47;;;25.40;87.60;;;;;;5030903;28;20198;-62
2022/09/07 12:48:10;;;;;;;8.13;7.43;;;25.60;86.30;;;;;;5031995;28;20194;-63
2022/09/07 12:50:59;;;;;;;7.87;7.17;;;25.70;83.50;;;;;;5032335;28;20233;-62
2022/09/07 12:53:45;;;;;;;6.73;6.20;;;26.00;85.60;;;;;;5030586;28;20215;-62
2022/09/07 12:56:45;;;;;;;7.67;7.07;;;26.30;83.60;;;;;;5030677;28;20186;-62
2022/09/07 12:59:38;;;;;;;7.73;7.03;;;26.60;83.90;;;;;;5030164;28;20398;-62